Burgos, España

1:19 PM CEST en Octubre 20, 2014 (GMT +0200)
Illera | Change Station
CLOSE
Current Station
Estación meteorológica personal
Location: Burgos, CASTILLA Y LE�N
Altura: 2851 ft
Estaciones meteorológicas cercanas

Alt 2851 ft 42.35 °N, 3.69 °W | Updated 1 second ago

Clear
Despejado
80.6 ° F
Sensación térmica 81 ° F
N
0.0
Viento Variable Viento desde SSE
Gusts 0.0 mph

Hoy
Alta -- | Baja -- ° F
--% Posibilidad de precipitaciones
Ayer
Alta -- | Baja -- ° F
Precip. -- pul
8:32 AM 7:25 PM
Creciente menguante, 11% visible
Presión 30.27 pul
Visibilidad -9999.0 Millas
Nubes
Índice de calor 81 ° F
Punto de rocío 55 ° F
Humedad 42%
Precipitaciones 0.00 pul
Espesor de la nieve No disponible.
UV No disponible.
Polen No disponible.
Calidad del aire No disponible.
Flu Activity No disponible.
METAR LEBG 201100Z 00000KT CAVOK 22/11 Q1025

More Conditions Fewer Conditions

Presión 30.27 pul
Visibilidad -9999.0 Millas
Nubes
Índice de calor 81 ° F
Punto de rocío 55 ° F
Humedad 42%
Precipitaciones 0.00 pul
Espesor de la nieve No disponible.
UV No disponible.
Polen No disponible.
Calidad del aire No disponible.
Flu Activity No disponible.
METAR LEBG 201100Z 00000KT CAVOK 22/11 Q1025

More Conditions Fewer Conditions

10-Day Weather Forecast

Almanac

Astronomía

Oct. 20, 2014 Salida Puesta
Hora real 8:32 AM CEST 7:25 PM CEST
Crepúsculo civil 8:04 AM CEST 7:53 PM CEST
Crepúsculo náutico 7:31 AM CEST 8:26 PM CEST
Crepúsculo astronómico 6:59 AM CEST 8:58 PM CEST
Luna 5:04 AM CEST 5:43 PM CEST
Horas de luz 11h 49m
Horas de luz
10h 52m
Tomorrow will be 2m 42s shorter.
Creciente menguante, 11% of the Moon is Illuminated
Hoy
Creciente menguante
Oct 23
Nueva
Oct 30
Cuarto creciente
Nov 6
Luna llena
Nov 14
Cuarto menguante

Extremos de ayer

Máximos del país Bajas del país

Community

WunderPhotos

Upload Photos

1,763,338 ¡fotos cargadas!

Nearby

Calidad del aire

Not available.

Grosos de nieve

Not available.

Actividad de terremotos

Ciudad Distance Mag. Tiempo y dato
No hay informes recientes de la actividad sísmica.
Magnitud mínima muestra es 2,5.

Temperaturas de aguas costeras

Lugar Temperatura
Sin partes meteorológicos de las estaciones

Estaciones meteorológicas cercanas